Terminal Aerodrome Forecast
Issued by NWS

Home | Current Version | Previous Version | Text Only | Print | Product List | Glossary Off
Versions: 1 2 3 4 5 6 7 8 9 10 11 12 13 14 15 16 17 18 19 20 21 22 23 24 25 26

000
FTUS43 KOAX 110523
TAFSNY
TAF
KSNY 110523Z 1106/1206 33014KT P6SM SKC
     FM111000 34010KT P6SM SCT030
     FM111400 36009KT P6SM FEW200
     AMD NOT SKED=

USA.gov is the U.S. government's official web portal to all federal, state and local government web resources and services.